Latest Weather Observations for Bickley

IDW60801

Issued at 10:05 am WST Thursday 21 August 2014 (issued every 30 minutes, with the page automatically refreshed every 10 minutes)

About weather observations | Map of weather stations | Latest weather observations for WA | Other Formats
Station Details ID: 009240 Name: BICKLEY Lat: -32.01 Lon: 116.14 Height: 384.0 m
Data from the previous 72 hours. | See also: Recent months at Bickley
Date/Time
WST
Temp
°C
App
Temp
°C
Dew
Point
Rel
Hum
%
Delta-T
°C
Wind Press
QNH
hPa
Press
MSL
hPa
Rain
since 9 am
mm
Dir
 
Spd
km/h
Gust
km/h
Spd
kts
Gust
kts
21/10:00am 15.2 11.0 12.3 83 1.6 W 26 43 14 23 - - 0.2
21/09:30am 15.0 12.3 13.4 90 0.9 W 20 33 11 18 - - 0.2
21/09:00am 14.9 12.5 14.3 96 0.3 W 20 35 11 19 - - 10.6
21/08:30am 14.4 11.9 14.2 99 0.1 WNW 20 32 11 17 - - 10.6
21/08:00am 14.2 - 14.0 99 0.1 - - - - - - - 10.6
21/07:30am 13.9 - 13.7 99 0.1 - - - - - - - 9.6
21/07:00am 14.0 - 13.8 99 0.1 - - - - - - - 8.0
21/06:30am 14.2 - 14.0 99 0.1 - - - - - - - 6.0
21/06:00am 14.1 - 13.8 98 0.2 - - - - - - - 5.0
21/05:30am 13.9 - 13.6 98 0.2 - - - - - - - 4.4
21/05:00am 14.1 - 13.0 93 0.6 - - - - - - - 4.0
21/04:30am 14.4 - 12.3 87 1.2 - - - - - - - 3.8
21/04:00am 14.3 - 12.0 86 1.3 - - - - - - - 3.8
21/03:30am 14.2 - 11.7 85 1.4 - - - - - - - 3.8
21/03:00am 14.2 - 11.7 85 1.4 - - - - - - - 3.8
21/02:30am 13.5 - 11.7 89 1.0 - - - - - - - 3.8
21/02:00am 12.8 - 11.7 93 0.6 - - - - - - - 3.8
21/01:30am 12.9 - 11.8 93 0.6 - - - - - - - 3.8
21/01:00am 13.2 - 12.1 93 0.6 - - - - - - - 3.8
21/12:30am 13.4 - 12.3 93 0.6 - - - - - - - 3.8
21/12:00am 13.0 - 11.7 92 0.7 - - - - - - - 3.8
 
Date/Time
WST
Temp
°C
App
Temp
°C
Dew
Point
Rel
Hum
%
Delta-T
°C
Wind Press
QNH
hPa
Press
MSL
hPa
Rain
since 9 am
mm
Dir
 
Spd
km/h
Gust
km/h
Spd
kts
Gust
kts
20/11:30pm 12.6 - 11.0 90 0.9 - - - - - - - 3.8
20/11:00pm 12.5 - 10.9 90 0.9 - - - - - - - 3.8
20/10:30pm 12.3 - 10.5 89 1.0 - - - - - - - 3.8
20/10:00pm 12.6 - 10.7 88 1.0 - - - - - - - 3.8
20/09:30pm 12.7 - 10.9 89 1.0 - - - - - - - 3.8
20/09:00pm 12.7 - 11.1 90 0.9 - - - - - - - 3.8
20/08:30pm 12.8 - 11.2 90 0.9 - - - - - - - 3.8
20/08:00pm 12.8 - 11.0 89 1.0 - - - - - - - 3.8
20/07:30pm 12.9 - 11.1 89 1.0 - - - - - - - 3.8
20/07:00pm 12.4 - 11.0 91 0.7 - - - - - - - 3.8
20/06:30pm 12.0 - 10.6 91 0.7 - - - - - - - 3.8
20/06:00pm 12.7 - 10.6 87 1.1 - - - - - - - 3.8
20/05:30pm 13.6 - 10.6 82 1.6 - - - - - - - 3.8
20/05:00pm 14.5 12.0 10.9 79 1.9 NW 15 28 8 15 - - 3.8
20/04:30pm 14.7 11.3 10.7 77 2.2 NW 19 30 10 16 - - 3.8
20/04:00pm 15.3 13.3 12.8 85 1.4 NW 15 28 8 15 - - 3.8
20/03:30pm 14.9 13.9 13.3 90 0.9 NNW 11 20 6 11 - - 3.8
20/03:00pm 14.0 - 12.6 91 0.8 - - - - - - - 3.8
20/02:30pm 12.7 9.8 12.4 98 0.2 NW 19 30 10 16 - - 3.8
20/02:00pm 13.7 - 12.8 94 0.5 - - - - - - - 2.6
20/01:30pm 13.6 - 12.8 95 0.4 - - - - - - - 2.6
20/01:00pm 13.0 11.0 12.7 98 0.2 NNW 15 26 8 14 - - 2.6
20/12:30pm 12.9 - 12.7 99 0.1 - - - - - - - 1.8
20/12:00pm 13.0 - 12.8 99 0.1 - - - - - - - 1.4
20/11:30am 13.1 - 12.5 96 0.3 - - - - - - - 1.0
20/11:00am 13.6 11.2 12.5 93 0.6 NW 17 24 9 13 - - 0.0
20/10:30am 13.5 11.4 12.4 93 0.6 NNW 15 26 8 14 - - 0.0
20/10:00am 13.5 - 12.2 92 0.7 - - - - - - - 0.0
20/09:30am 13.3 - 12.0 92 0.7 - - - - - - - 0.0
20/09:00am 12.9 - 12.7 99 0.1 - - - - - - - 0.4
20/08:30am 11.8 - 11.6 99 0.1 - - - - - - - 0.4
20/08:00am 11.5 10.6 11.3 99 0.1 NNE 7 13 4 7 - - 0.4
20/07:30am 10.5 - 10.3 99 0.1 - - - - - - - 0.4
20/07:00am 10.4 - 10.2 99 0.1 - - - - - - - 0.4
20/06:30am 11.2 - 11.0 99 0.1 - - - - - - - 0.4
20/06:00am 11.3 - 11.1 99 0.1 - - - - - - - 0.4
20/05:30am 11.5 - 11.3 99 0.1 - - - - - - - 0.2
20/05:00am 11.1 - 10.9 99 0.1 - - - - - - - 0.2
20/04:30am 11.3 - 11.1 99 0.1 - - - - - - - 0.2
20/04:00am 11.6 - 11.4 99 0.1 - - - - - - - 0.2
20/03:30am 11.5 - 11.0 97 0.3 - - - - - - - 0.2
20/03:00am 11.6 - 11.3 98 0.2 - - - - - - - 0.2
20/02:30am 11.7 - 11.5 99 0.1 - - - - - - - 0.2
20/02:00am 11.7 - 11.5 99 0.1 - - - - - - - 0.2
20/01:30am 11.7 - 11.4 98 0.2 - - - - - - - 0.2
20/01:00am 11.8 - 11.6 99 0.1 - - - - - - - 0.2
20/12:30am 11.8 - 11.6 99 0.1 - - - - - - - 0.2
20/12:00am 11.8 - 11.6 99 0.1 - - - - - - - 0.2
 
Date/Time
WST
Temp
°C
App
Temp
°C
Dew
Point
Rel
Hum
%
Delta-T
°C
Wind Press
QNH
hPa
Press
MSL
hPa
Rain
since 9 am
mm
Dir
 
Spd
km/h
Gust
km/h
Spd
kts
Gust
kts
19/11:30pm 11.7 - 11.5 99 0.1 - - - - - - - 0.2
19/11:00pm 11.8 - 11.6 99 0.1 - - - - - - - 0.2
19/10:30pm 11.9 - 11.7 99 0.1 - - - - - - - 0.0
19/10:00pm 11.5 - 11.3 99 0.1 - - - - - - - 0.0
19/09:30pm 11.4 - 11.2 99 0.1 - - - - - - - 0.0
19/09:00pm 11.9 - 11.7 99 0.1 - - - - - - - 0.0
19/08:30pm 12.1 - 11.9 99 0.1 - - - - - - - 0.0
19/08:00pm 12.3 - 12.1 99 0.1 - - - - - - - 0.0
19/07:30pm 12.2 - 11.7 97 0.3 - - - - - - - 0.0
19/07:00pm 12.3 - 11.5 95 0.4 - - - - - - - 0.0
19/06:30pm 12.5 - 11.4 93 0.6 - - - - - - - 0.0
19/06:00pm 13.0 - 11.1 88 1.0 - - - - - - - 0.0
19/05:30pm 13.5 - 11.0 85 1.3 - - - - - - - 0.0
19/05:00pm 14.3 - 10.7 79 1.9 - - - - - - - 0.0
19/04:30pm 15.9 13.9 11.5 75 2.4 W 13 22 7 12 - - 0.0
19/04:00pm 15.9 13.2 10.2 69 3.1 W 15 26 8 14 - - 0.0
19/03:30pm 16.9 15.3 11.4 70 3.0 WSW 11 24 6 13 - - 0.0
19/03:00pm 15.6 - 11.6 77 2.2 - - - - - - - 0.0
19/02:30pm 16.5 14.4 11.2 71 2.9 W 13 24 7 13 - - 0.0
19/02:00pm 16.5 14.2 11.9 74 2.6 WNW 15 24 8 13 - - 0.0
19/01:30pm 16.8 15.9 12.5 76 2.4 NW 9 13 5 7 - - 0.0
19/01:00pm 15.4 - 10.4 72 2.7 - - - - - - - 0.0
19/12:30pm 15.5 14.3 11.7 78 2.1 W 9 15 5 8 - - 0.0
19/12:00pm 15.0 - 11.6 80 1.9 - - - - - - - 0.0
19/11:30am 14.0 - 11.0 82 1.6 - - - - - - - 0.0
19/11:00am 14.4 - 11.9 85 1.4 - - - - - - - 0.0
19/10:30am 14.0 - 13.1 94 0.5 - - - - - - - 0.0
19/10:00am 13.5 12.3 12.9 96 0.3 NW 11 17 6 9 - - 0.0
19/09:30am 12.8 - 12.6 99 0.1 - - - - - - - 0.0
19/09:00am 12.5 - 12.0 97 0.3 - - - - - - - 33.4
19/08:30am 12.3 11.7 11.8 97 0.3 SW 6 7 3 4 - - 33.4
19/08:00am 11.6 10.9 11.4 99 0.1 W 6 7 3 4 - - 33.4
19/07:30am 10.5 8.9 10.3 99 0.1 WSW 9 11 5 6 - - 33.4
19/07:00am 10.5 - 10.3 99 0.1 - - - - - - - 33.4
19/06:30am 11.0 - 10.8 99 0.1 - - - - - - - 33.4
19/06:00am 11.2 - 11.0 99 0.1 - - - - - - - 33.4
19/05:30am 11.3 - 11.1 99 0.1 - - - - - - - 33.4
19/05:00am 11.5 - 11.3 99 0.1 - - - - - - - 33.4
19/04:30am 11.4 - 11.2 99 0.1 - - - - - - - 33.4
19/04:00am 11.7 - 11.5 99 0.1 - - - - - - - 33.2
19/03:30am 11.8 - 11.6 99 0.1 - - - - - - - 33.0
19/03:00am 11.8 - 11.6 99 0.1 - - - - - - - 32.4
19/02:30am 11.7 - 11.5 99 0.1 - - - - - - - 30.6
19/02:00am 11.6 - 11.3 98 0.2 - - - - - - - 30.6
19/01:30am 11.7 - 11.4 98 0.2 - - - - - - - 30.6
19/01:00am 11.4 - 11.1 98 0.2 - - - - - - - 30.6
19/12:30am 11.4 - 11.2 99 0.1 - - - - - - - 30.6
19/12:00am 11.4 - 11.2 99 0.1 - - - - - - - 30.6
 
Date/Time
WST
Temp
°C
App
Temp
°C
Dew
Point
Rel
Hum
%
Delta-T
°C
Wind Press
QNH
hPa
Press
MSL
hPa
Rain
since 9 am
mm
Dir
 
Spd
km/h
Gust
km/h
Spd
kts
Gust
kts
18/11:30pm 11.5 - 11.3 99 0.1 - - - - - - - 30.6
18/11:00pm 11.7 - 11.5 99 0.1 - - - - - - - 30.6
18/10:30pm 11.7 - 11.5 99 0.1 - - - - - - - 30.6
18/10:00pm 11.7 - 11.5 99 0.1 - - - - - - - 30.6
18/09:30pm 11.8 - 11.6 99 0.1 - - - - - - - 30.4
18/09:00pm 11.7 - 11.5 99 0.1 - - - - - - - 30.2
18/08:30pm 11.8 - 11.6 99 0.1 - - - - - - - 28.6
18/08:00pm 12.1 - 11.9 99 0.1 - - - - - - - 26.8
18/07:30pm 12.3 - 12.1 99 0.1 - - - - - - - 26.8
18/07:00pm 12.6 - 12.4 99 0.1 - - - - - - - 25.4
18/06:30pm 12.6 - 12.4 99 0.1 - - - - - - - 25.0
18/06:00pm 12.4 - 12.2 99 0.1 - - - - - - - 23.6
18/05:30pm 12.4 - 12.2 99 0.1 - - - - - - - 23.6
18/05:00pm 12.2 - 11.9 98 0.2 - - - - - - - 23.4
18/04:30pm 12.6 - 12.1 97 0.3 - - - - - - - 22.4
18/04:00pm 13.0 - 12.1 94 0.5 - - - - - - - 21.6
18/03:30pm 13.6 9.3 10.9 84 1.4 WNW 24 39 13 21 - - 21.0
18/03:00pm 14.0 - 11.3 84 1.5 - - - - - - - 20.4
18/02:30pm 14.2 - 11.2 82 1.6 - - - - - - - 20.4
18/02:00pm 13.8 9.2 12.4 91 0.8 W 28 48 15 26 - - 20.4
18/01:35pm 14.2 9.9 13.1 93 0.6 WNW 28 46 15 25 - - 19.4
18/01:30pm 14.2 10.3 13.2 94 0.6 W 26 43 14 23 - - 19.4
18/01:00pm 13.2 - 12.3 94 0.5 - - - - - - - 18.8
18/12:30pm 14.0 10.7 12.9 93 0.6 WNW 22 69 12 37 - - 17.2
18/12:00pm 13.7 10.6 13.4 98 0.2 WNW 22 35 12 19 - - 15.6
18/11:30am 12.3 - 12.0 98 0.2 - - - - - - - 14.8
18/11:00am 12.5 - 12.3 99 0.1 - - - - - - - 10.2
18/10:30am 12.4 - 12.2 99 0.1 - - - - - - - 4.2

Other Formats:

Comma delimited format used in spreadsheet applications
http://www.bom.gov.au/fwo/IDW60801/IDW60801.95610.axf

JavaScript Object Notation format (JSON) in row-major order
http://www.bom.gov.au/fwo/IDW60801/IDW60801.95610.json